TAF and METAR

METAR for Yonaguni Airport

ROYN 192000Z AUTO 01025KT 9999 SCT023 SCT029 BKN036 25/20 Q1014
Report created 19. okt 22:00
report generated by an automatic observation system. wind 25 knots from N (010°) visibility > 10km scattered clouds (~50% cover) at 2300 feet scattered clouds (~50% cover) at 2900 feet broken clouds (~75% cover) at 3600 feet Temperature 25° with dewpoint at 20° (Humidity 73.85%) Pressure 1014 hPa
No TAF available for Yonaguni Airport